createdAt,value
2023-05-22T00:00:55.208Z,11.10
2023-05-22T00:05:58.995Z,10.50
2023-05-22T00:11:00.680Z,9.90
2023-05-22T00:16:03.116Z,14.30
2023-05-22T00:21:04.940Z,15.00
2023-05-22T00:26:06.471Z,12.40
2023-05-22T00:31:08.223Z,14.20
2023-05-22T00:36:09.918Z,14.30
2023-05-22T00:41:11.477Z,14.60
2023-05-22T00:46:13.095Z,15.70
2023-05-22T00:51:15.468Z,16.60
2023-05-22T00:56:17.778Z,18.70
2023-05-22T01:01:19.871Z,19.70
2023-05-22T01:06:24.383Z,18.80
2023-05-22T01:11:29.894Z,17.70
2023-05-22T01:16:46.897Z,18.70
2023-05-22T01:22:25.548Z,21.40
2023-05-22T01:27:58.429Z,17.70
2023-05-22T01:38:03.689Z,16.30
2023-05-22T01:43:05.427Z,17.70
2023-05-22T01:48:07.514Z,17.30
2023-05-22T01:53:15.516Z,17.60
2023-05-22T01:58:29.332Z,15.50
2023-05-22T02:03:33.654Z,13.60
2023-05-22T02:08:40.487Z,17.10
2023-05-22T02:13:43.008Z,14.90
2023-05-22T02:18:45.509Z,15.60
2023-05-22T02:23:47.399Z,14.30
2023-05-22T02:28:48.938Z,19.20
2023-05-22T02:33:50.509Z,15.90
2023-05-22T02:38:52.769Z,12.60
2023-05-22T02:43:54.361Z,12.80
2023-05-22T02:48:55.939Z,14.00
2023-05-22T02:53:57.484Z,15.80
2023-05-22T02:58:59.270Z,14.50
2023-05-22T03:04:00.808Z,15.50
2023-05-22T03:09:04.228Z,18.30
2023-05-22T03:14:05.780Z,17.10
2023-05-22T03:19:10.606Z,13.40
2023-05-22T03:24:14.782Z,11.90
2023-05-22T03:29:16.395Z,13.70
2023-05-22T03:34:18.004Z,11.90
2023-05-22T03:39:19.663Z,12.90
2023-05-22T03:44:21.258Z,9.70
2023-05-22T03:49:22.845Z,11.40
2023-05-22T03:54:24.538Z,12.40
2023-05-22T03:59:26.119Z,10.50
2023-05-22T04:04:30.490Z,14.80
2023-05-22T04:09:32.385Z,11.90
2023-05-22T04:14:34.008Z,9.20
2023-05-22T04:19:35.558Z,13.20
2023-05-22T04:24:39.872Z,10.60
2023-05-22T04:29:41.692Z,11.40
2023-05-22T04:34:44.931Z,8.40
2023-05-22T04:39:47.112Z,8.00
2023-05-22T04:44:48.665Z,8.00
2023-05-22T04:49:51.477Z,7.40
2023-05-22T04:54:53.082Z,6.40
2023-05-22T04:59:54.694Z,8.00
2023-05-22T05:04:56.245Z,7.20
2023-05-22T05:09:57.754Z,6.60
2023-05-22T05:14:59.349Z,7.10
2023-05-22T05:20:01.002Z,7.60
2023-05-22T05:25:03.996Z,7.00
2023-05-22T05:30:06.825Z,8.10
2023-05-22T05:40:13.400Z,10.70
2023-05-22T05:45:15.135Z,10.90
2023-05-22T05:50:17.283Z,5.30
2023-05-22T05:55:18.818Z,7.20
2023-05-22T06:00:22.829Z,7.10
2023-05-22T06:05:24.470Z,7.20
2023-05-22T06:10:26.435Z,8.10
2023-05-22T06:15:27.963Z,7.10
2023-05-22T06:20:29.663Z,7.30
2023-05-22T06:25:31.312Z,4.50
2023-05-22T06:30:40.076Z,7.00
2023-05-22T06:35:42.376Z,8.70
2023-05-22T06:40:43.964Z,7.40
2023-05-22T06:45:45.569Z,6.80
2023-05-22T06:50:47.752Z,6.30
2023-05-22T06:55:49.308Z,9.60
2023-05-22T07:00:52.405Z,5.00
2023-05-22T07:05:56.840Z,9.20
2023-05-22T07:10:58.794Z,6.00
2023-05-22T07:16:00.538Z,6.00
2023-05-22T07:21:03.039Z,5.40
2023-05-22T07:26:04.751Z,6.10
2023-05-22T07:31:06.758Z,5.00
2023-05-22T07:36:08.480Z,6.90
2023-05-22T07:41:09.990Z,6.60
2023-05-22T07:46:14.469Z,5.10
2023-05-22T07:51:16.190Z,8.40
2023-05-22T07:56:18.075Z,4.80
2023-05-22T08:01:19.805Z,7.70
2023-05-22T08:06:23.778Z,6.30
2023-05-22T08:11:28.840Z,5.90
2023-05-22T08:16:33.356Z,6.20
2023-05-22T08:21:35.948Z,4.80
2023-05-22T08:26:41.347Z,5.50
2023-05-22T08:31:42.917Z,4.40
2023-05-22T08:36:44.560Z,5.10
2023-05-22T08:41:47.453Z,6.60
2023-05-22T08:46:51.796Z,5.30
2023-05-22T08:52:00.220Z,6.50
2023-05-22T08:57:02.369Z,4.70
2023-05-22T09:02:06.963Z,4.20
2023-05-22T09:07:09.252Z,3.70
2023-05-22T09:12:11.208Z,4.70
2023-05-22T09:17:15.614Z,3.90
2023-05-22T09:22:17.513Z,4.00
2023-05-22T09:27:23.533Z,3.70
2023-05-22T09:32:25.489Z,4.20
2023-05-22T09:37:28.808Z,10.80
2023-05-22T09:42:30.963Z,3.30
2023-05-22T09:52:37.613Z,4.10
2023-05-22T09:57:43.029Z,4.50
2023-05-22T10:02:51.999Z,3.30
2023-05-22T10:07:57.181Z,3.90
2023-05-22T10:13:06.491Z,5.90
2023-05-22T10:18:08.665Z,4.00
2023-05-22T10:23:11.353Z,4.00
2023-05-22T10:28:23.547Z,5.30
2023-05-22T10:33:34.069Z,5.20
2023-05-22T10:38:59.869Z,9.60
2023-05-22T10:44:04.211Z,3.60
2023-05-22T10:49:06.021Z,3.80
2023-05-22T10:54:07.687Z,4.00
2023-05-22T10:59:09.244Z,4.30
2023-05-22T11:04:12.274Z,5.20
2023-05-22T11:09:17.268Z,4.10
2023-05-22T11:14:20.736Z,4.40
2023-05-22T11:19:23.824Z,5.10
2023-05-22T11:24:25.908Z,4.30
2023-05-22T11:29:29.320Z,4.00
2023-05-22T11:34:34.092Z,6.20
2023-05-22T11:39:35.626Z,5.40
2023-05-22T11:44:39.562Z,4.50
2023-05-22T11:49:44.787Z,6.60
2023-05-22T11:54:47.515Z,4.20
2023-05-22T11:59:49.684Z,4.70
2023-05-22T12:04:58.541Z,3.80
2023-05-22T12:10:01.358Z,4.60
2023-05-22T12:15:06.307Z,6.50
2023-05-22T12:20:13.105Z,3.90
2023-05-22T12:25:17.557Z,4.60
2023-05-22T12:30:26.707Z,4.30
2023-05-22T12:35:29.043Z,3.60
2023-05-22T12:40:30.566Z,4.10
2023-05-22T12:45:32.170Z,3.90
2023-05-22T12:50:33.729Z,3.50
2023-05-22T12:55:36.742Z,4.10
2023-05-22T13:00:42.941Z,3.60
2023-05-22T13:05:45.207Z,4.40
2023-05-22T13:10:46.708Z,4.70
2023-05-22T13:15:48.291Z,5.20
2023-05-22T13:20:49.985Z,3.30
2023-05-22T13:25:51.668Z,3.30
2023-05-22T13:30:54.231Z,4.40
2023-05-22T13:35:55.970Z,4.00
2023-05-22T13:40:58.112Z,3.40
2023-05-22T13:45:59.646Z,3.90
2023-05-22T13:51:01.203Z,5.70
2023-05-22T13:56:02.755Z,4.60
2023-05-22T14:01:04.348Z,5.20
2023-05-22T14:06:06.316Z,4.00
2023-05-22T14:11:07.953Z,5.00
2023-05-22T14:16:09.679Z,4.30
2023-05-22T14:21:11.264Z,4.50
2023-05-22T14:26:14.380Z,4.10
2023-05-22T14:31:17.195Z,4.10
2023-05-22T14:36:18.797Z,4.30
2023-05-22T14:41:21.361Z,3.50
2023-05-22T14:46:22.908Z,4.10
2023-05-22T14:51:24.686Z,3.00
2023-05-22T14:56:28.801Z,3.90
2023-05-22T15:01:30.741Z,4.30
2023-05-22T15:06:32.712Z,3.20
2023-05-22T15:11:34.541Z,3.70
2023-05-22T15:16:36.375Z,3.90
2023-05-22T15:21:38.010Z,6.10
2023-05-22T15:26:42.323Z,4.70
2023-05-22T15:31:43.941Z,3.40
2023-05-22T15:36:45.555Z,4.00
2023-05-22T15:41:58.253Z,3.80
2023-05-22T15:47:07.197Z,4.30
2023-05-22T15:52:08.788Z,6.30
2023-05-22T15:57:10.580Z,4.30
2023-05-22T16:02:12.178Z,6.10
2023-05-22T16:07:13.721Z,4.10
2023-05-22T16:12:15.570Z,6.30
2023-05-22T16:17:17.118Z,4.90
2023-05-22T16:22:19.465Z,8.80
2023-05-22T16:27:21.090Z,7.30
2023-05-22T16:32:24.325Z,5.50
2023-05-22T16:37:26.050Z,4.40
2023-05-22T16:42:27.778Z,6.00
2023-05-22T16:47:30.214Z,5.70
2023-05-22T16:52:31.791Z,6.70
2023-05-22T16:57:33.294Z,3.80
2023-05-22T17:02:35.536Z,5.10
2023-05-22T17:07:37.757Z,5.60
2023-05-22T17:17:41.073Z,4.70
2023-05-22T17:22:42.706Z,5.60
2023-05-22T17:27:44.850Z,6.50
2023-05-22T17:37:48.395Z,4.50
2023-05-22T17:42:50.011Z,4.80
2023-05-22T17:47:51.638Z,6.10
2023-05-22T17:52:53.448Z,6.70
2023-05-22T17:57:55.026Z,9.30
2023-05-22T18:02:56.625Z,7.00
2023-05-22T18:07:58.311Z,15.30
2023-05-22T18:12:59.851Z,25.70
2023-05-22T18:18:03.620Z,20.80
2023-05-22T18:23:05.770Z,15.60
2023-05-22T18:28:08.782Z,11.70
2023-05-22T18:33:12.083Z,9.20
2023-05-22T18:38:13.689Z,8.30
2023-05-22T18:43:15.429Z,11.00
2023-05-22T18:48:16.973Z,8.00
2023-05-22T18:53:18.822Z,8.30
2023-05-22T18:58:20.650Z,6.80
2023-05-22T19:03:22.293Z,6.40
2023-05-22T19:08:26.649Z,7.50
2023-05-22T19:13:29.293Z,6.20
2023-05-22T19:18:31.081Z,5.70
2023-05-22T19:23:33.086Z,5.20
2023-05-22T19:28:34.643Z,8.60
2023-05-22T19:33:36.554Z,7.10
2023-05-22T19:38:38.212Z,8.70
2023-05-22T19:43:39.809Z,7.60
2023-05-22T19:48:41.664Z,10.70
2023-05-22T19:53:44.403Z,10.30
2023-05-22T20:03:47.789Z,11.60
2023-05-22T20:08:49.452Z,8.80
2023-05-22T20:13:54.546Z,12.00
2023-05-22T20:18:56.409Z,13.40
2023-05-22T20:23:58.043Z,14.60
2023-05-22T20:28:59.564Z,11.60
2023-05-22T20:34:02.022Z,14.80
2023-05-22T20:39:03.862Z,18.00
2023-05-22T20:44:06.451Z,15.40
2023-05-22T20:49:08.030Z,17.80
2023-05-22T20:54:09.543Z,13.90
2023-05-22T20:59:11.453Z,15.20
2023-05-22T21:04:13.146Z,15.60
2023-05-22T21:09:14.837Z,13.70
2023-05-22T21:14:17.411Z,15.70
2023-05-22T21:19:19.206Z,13.30
2023-05-22T21:24:21.888Z,17.80
2023-05-22T21:29:23.428Z,17.90
2023-05-22T21:34:24.994Z,13.10
2023-05-22T21:39:26.527Z,12.40
2023-05-22T21:44:28.065Z,16.20
2023-05-22T21:49:29.593Z,12.60
2023-05-22T21:54:31.116Z,11.80
2023-05-22T21:59:32.683Z,13.40
2023-05-22T22:04:34.248Z,17.30
2023-05-22T22:09:35.803Z,15.10
2023-05-22T22:14:37.416Z,14.20
2023-05-22T22:19:41.824Z,13.80
2023-05-22T22:24:43.346Z,14.30
2023-05-22T22:29:44.939Z,11.40
2023-05-22T22:34:47.025Z,13.50
2023-05-22T22:39:48.568Z,13.00
2023-05-22T22:44:50.401Z,15.00
2023-05-22T22:49:52.720Z,13.80
2023-05-22T22:54:54.260Z,12.90
2023-05-22T22:59:57.312Z,13.10
2023-05-22T23:04:59.048Z,13.20
2023-05-22T23:10:00.757Z,13.60
2023-05-22T23:15:03.049Z,13.20
2023-05-22T23:20:05.942Z,14.00
2023-05-22T23:25:07.992Z,14.30
2023-05-22T23:30:10.261Z,17.00
2023-05-22T23:35:11.860Z,12.20
2023-05-22T23:40:13.432Z,11.90
2023-05-22T23:45:14.971Z,12.00
2023-05-22T23:50:16.688Z,10.70
2023-05-22T23:55:18.337Z,11.50
